sensor_id;sensor_type;location;lat;lon;timestamp;P1;durP1;ratioP1;P2;durP2;ratioP2
12332;SDS011;6232;48.094;11.288;2023-05-24T00:01:52;7.80;;;5.53;;
12332;SDS011;6232;48.094;11.288;2023-05-24T00:04:41;5.47;;;4.90;;
12332;SDS011;6232;48.094;11.288;2023-05-24T00:07:26;7.53;;;5.27;;
12332;SDS011;6232;48.094;11.288;2023-05-24T00:10:12;7.50;;;5.30;;
12332;SDS011;6232;48.094;11.288;2023-05-24T00:12:57;5.73;;;5.13;;
12332;SDS011;6232;48.094;11.288;2023-05-24T00:15:43;6.03;;;5.43;;
12332;SDS011;6232;48.094;11.288;2023-05-24T00:18:28;6.90;;;5.63;;
12332;SDS011;6232;48.094;11.288;2023-05-24T00:21:15;5.43;;;4.93;;
12332;SDS011;6232;48.094;11.288;2023-05-24T00:24:01;6.60;;;5.90;;
12332;SDS011;6232;48.094;11.288;2023-05-24T00:26:46;6.03;;;5.50;;
12332;SDS011;6232;48.094;11.288;2023-05-24T00:29:32;5.57;;;5.03;;
12332;SDS011;6232;48.094;11.288;2023-05-24T00:32:18;6.00;;;5.10;;
12332;SDS011;6232;48.094;11.288;2023-05-24T00:35:04;7.17;;;6.47;;
12332;SDS011;6232;48.094;11.288;2023-05-24T00:37:49;8.30;;;5.10;;
12332;SDS011;6232;48.094;11.288;2023-05-24T00:40:35;7.23;;;5.93;;
12332;SDS011;6232;48.094;11.288;2023-05-24T00:43:21;5.57;;;5.00;;
12332;SDS011;6232;48.094;11.288;2023-05-24T00:46:11;5.40;;;4.90;;
12332;SDS011;6232;48.094;11.288;2023-05-24T00:48:59;7.40;;;5.70;;
12332;SDS011;6232;48.094;11.288;2023-05-24T00:51:45;6.77;;;6.10;;
12332;SDS011;6232;48.094;11.288;2023-05-24T00:54:31;6.17;;;5.50;;
12332;SDS011;6232;48.094;11.288;2023-05-24T00:57:17;6.63;;;6.03;;
12332;SDS011;6232;48.094;11.288;2023-05-24T01:00:03;6.07;;;5.43;;
12332;SDS011;6232;48.094;11.288;2023-05-24T01:02:49;7.00;;;5.20;;
12332;SDS011;6232;48.094;11.288;2023-05-24T01:05:39;5.60;;;4.90;;
12332;SDS011;6232;48.094;11.288;2023-05-24T01:14:28;6.80;;;5.30;;
12332;SDS011;6232;48.094;11.288;2023-05-24T01:17:22;6.30;;;5.30;;
12332;SDS011;6232;48.094;11.288;2023-05-24T01:20:11;7.23;;;6.17;;
12332;SDS011;6232;48.094;11.288;2023-05-24T01:29:08;6.33;;;5.30;;
12332;SDS011;6232;48.094;11.288;2023-05-24T01:31:54;6.67;;;5.23;;
12332;SDS011;6232;48.094;11.288;2023-05-24T01:34:40;5.07;;;4.57;;
12332;SDS011;6232;48.094;11.288;2023-05-24T01:37:26;5.33;;;4.83;;
12332;SDS011;6232;48.094;11.288;2023-05-24T01:40:11;5.60;;;4.63;;
12332;SDS011;6232;48.094;11.288;2023-05-24T01:51:21;6.33;;;5.73;;
12332;SDS011;6232;48.094;11.288;2023-05-24T01:54:08;7.10;;;6.40;;
12332;SDS011;6232;48.094;11.288;2023-05-24T01:56:54;5.83;;;5.23;;
12332;SDS011;6232;48.094;11.288;2023-05-24T01:59:42;8.13;;;5.40;;
12332;SDS011;6232;48.094;11.288;2023-05-24T02:02:27;5.77;;;5.27;;
12332;SDS011;6232;48.094;11.288;2023-05-24T02:05:13;8.70;;;6.00;;
12332;SDS011;6232;48.094;11.288;2023-05-24T02:07:59;7.07;;;6.37;;
12332;SDS011;6232;48.094;11.288;2023-05-24T02:10:44;6.63;;;6.00;;
12332;SDS011;6232;48.094;11.288;2023-05-24T02:13:30;5.73;;;5.23;;
12332;SDS011;6232;48.094;11.288;2023-05-24T02:16:15;7.30;;;6.50;;
12332;SDS011;6232;48.094;11.288;2023-05-24T02:19:02;7.43;;;6.63;;
12332;SDS011;6232;48.094;11.288;2023-05-24T02:21:47;7.20;;;6.50;;
12332;SDS011;6232;48.094;11.288;2023-05-24T02:24:33;6.00;;;5.50;;
12332;SDS011;6232;48.094;11.288;2023-05-24T02:27:19;6.63;;;5.93;;
12332;SDS011;6232;48.094;11.288;2023-05-24T02:30:05;6.50;;;5.70;;
12332;SDS011;6232;48.094;11.288;2023-05-24T02:32:51;7.77;;;6.33;;
12332;SDS011;6232;48.094;11.288;2023-05-24T02:35:36;6.63;;;5.90;;
12332;SDS011;6232;48.094;11.288;2023-05-24T02:38:22;7.00;;;5.77;;
12332;SDS011;6232;48.094;11.288;2023-05-24T02:41:07;7.60;;;6.20;;
12332;SDS011;6232;48.094;11.288;2023-05-24T02:43:53;6.77;;;6.10;;
12332;SDS011;6232;48.094;11.288;2023-05-24T02:46:39;7.37;;;6.07;;
12332;SDS011;6232;48.094;11.288;2023-05-24T02:49:24;6.80;;;6.10;;
12332;SDS011;6232;48.094;11.288;2023-05-24T02:52:10;7.23;;;6.53;;
12332;SDS011;6232;48.094;11.288;2023-05-24T02:54:55;7.33;;;6.13;;
12332;SDS011;6232;48.094;11.288;2023-05-24T02:57:41;6.50;;;5.80;;
12332;SDS011;6232;48.094;11.288;2023-05-24T03:00:27;7.63;;;6.30;;
12332;SDS011;6232;48.094;11.288;2023-05-24T03:03:12;9.00;;;7.50;;
12332;SDS011;6232;48.094;11.288;2023-05-24T03:05:58;6.67;;;6.07;;
12332;SDS011;6232;48.094;11.288;2023-05-24T03:08:43;11.33;;;7.03;;
12332;SDS011;6232;48.094;11.288;2023-05-24T03:11:29;7.90;;;6.67;;
12332;SDS011;6232;48.094;11.288;2023-05-24T03:14:14;6.13;;;5.53;;
12332;SDS011;6232;48.094;11.288;2023-05-24T03:17:01;7.63;;;6.90;;
12332;SDS011;6232;48.094;11.288;2023-05-24T03:19:47;8.57;;;6.70;;
12332;SDS011;6232;48.094;11.288;2023-05-24T03:22:32;7.27;;;6.50;;
12332;SDS011;6232;48.094;11.288;2023-05-24T03:25:18;7.00;;;6.30;;
12332;SDS011;6232;48.094;11.288;2023-05-24T03:28:03;7.47;;;6.20;;
12332;SDS011;6232;48.094;11.288;2023-05-24T03:30:49;8.43;;;7.53;;
12332;SDS011;6232;48.094;11.288;2023-05-24T03:33:35;8.80;;;6.93;;
12332;SDS011;6232;48.094;11.288;2023-05-24T03:36:20;7.77;;;6.70;;
12332;SDS011;6232;48.094;11.288;2023-05-24T03:39:06;7.73;;;6.63;;
12332;SDS011;6232;48.094;11.288;2023-05-24T03:41:52;7.70;;;6.77;;
12332;SDS011;6232;48.094;11.288;2023-05-24T03:44:37;7.83;;;6.93;;
12332;SDS011;6232;48.094;11.288;2023-05-24T03:47:24;9.10;;;7.20;;
12332;SDS011;6232;48.094;11.288;2023-05-24T03:50:09;10.13;;;7.73;;
12332;SDS011;6232;48.094;11.288;2023-05-24T03:52:55;11.90;;;7.50;;
12332;SDS011;6232;48.094;11.288;2023-05-24T03:55:40;8.20;;;7.33;;
12332;SDS011;6232;48.094;11.288;2023-05-24T03:58:26;9.20;;;7.20;;
12332;SDS011;6232;48.094;11.288;2023-05-24T04:01:12;9.33;;;6.67;;
12332;SDS011;6232;48.094;11.288;2023-05-24T04:03:57;9.87;;;8.03;;
12332;SDS011;6232;48.094;11.288;2023-05-24T04:06:43;10.70;;;8.60;;
12332;SDS011;6232;48.094;11.288;2023-05-24T04:09:28;9.53;;;7.97;;
12332;SDS011;6232;48.094;11.288;2023-05-24T04:12:14;8.50;;;7.37;;
12332;SDS011;6232;48.094;11.288;2023-05-24T04:14:59;12.37;;;7.47;;
12332;SDS011;6232;48.094;11.288;2023-05-24T04:17:46;9.47;;;7.00;;
12332;SDS011;6232;48.094;11.288;2023-05-24T04:20:32;11.10;;;6.97;;
12332;SDS011;6232;48.094;11.288;2023-05-24T04:23:18;8.83;;;7.07;;
12332;SDS011;6232;48.094;11.288;2023-05-24T04:26:03;11.67;;;7.60;;
12332;SDS011;6232;48.094;11.288;2023-05-24T04:28:49;10.60;;;8.00;;
12332;SDS011;6232;48.094;11.288;2023-05-24T04:31:35;10.30;;;6.90;;
12332;SDS011;6232;48.094;11.288;2023-05-24T04:34:20;22.43;;;10.70;;
12332;SDS011;6232;48.094;11.288;2023-05-24T04:37:06;8.50;;;7.60;;
12332;SDS011;6232;48.094;11.288;2023-05-24T04:39:52;9.90;;;7.20;;
12332;SDS011;6232;48.094;11.288;2023-05-24T04:42:37;19.37;;;14.70;;
12332;SDS011;6232;48.094;11.288;2023-05-24T04:45:23;13.37;;;10.20;;
12332;SDS011;6232;48.094;11.288;2023-05-24T04:48:09;8.30;;;6.93;;
12332;SDS011;6232;48.094;11.288;2023-05-24T04:50:55;8.90;;;6.03;;
12332;SDS011;6232;48.094;11.288;2023-05-24T04:53:41;9.60;;;6.53;;
12332;SDS011;6232;48.094;11.288;2023-05-24T04:56:27;12.53;;;5.73;;
12332;SDS011;6232;48.094;11.288;2023-05-24T04:59:12;9.00;;;6.20;;
12332;SDS011;6232;48.094;11.288;2023-05-24T05:01:58;7.80;;;5.80;;
12332;SDS011;6232;48.094;11.288;2023-05-24T05:04:43;8.23;;;5.93;;
12332;SDS011;6232;48.094;11.288;2023-05-24T05:07:29;7.80;;;6.33;;
12332;SDS011;6232;48.094;11.288;2023-05-24T05:10:15;7.67;;;5.80;;
12332;SDS011;6232;48.094;11.288;2023-05-24T05:13:00;7.67;;;5.87;;
12332;SDS011;6232;48.094;11.288;2023-05-24T05:15:46;8.80;;;6.10;;
12332;SDS011;6232;48.094;11.288;2023-05-24T05:18:31;8.90;;;6.00;;
12332;SDS011;6232;48.094;11.288;2023-05-24T05:21:18;6.10;;;5.47;;
12332;SDS011;6232;48.094;11.288;2023-05-24T05:24:03;7.70;;;5.70;;
12332;SDS011;6232;48.094;11.288;2023-05-24T05:26:49;6.30;;;5.30;;
12332;SDS011;6232;48.094;11.288;2023-05-24T05:29:35;10.50;;;6.37;;
12332;SDS011;6232;48.094;11.288;2023-05-24T05:32:20;6.23;;;5.63;;
12332;SDS011;6232;48.094;11.288;2023-05-24T05:35:06;8.60;;;5.77;;
12332;SDS011;6232;48.094;11.288;2023-05-24T05:37:52;10.40;;;6.33;;
12332;SDS011;6232;48.094;11.288;2023-05-24T05:40:37;7.27;;;6.10;;
12332;SDS011;6232;48.094;11.288;2023-05-24T05:43:23;8.23;;;5.00;;
12332;SDS011;6232;48.094;11.288;2023-05-24T05:46:09;8.53;;;5.57;;
12332;SDS011;6232;48.094;11.288;2023-05-24T05:48:55;7.40;;;5.60;;
12332;SDS011;6232;48.094;11.288;2023-05-24T05:51:41;12.50;;;5.90;;
12332;SDS011;6232;48.094;11.288;2023-05-24T05:54:26;6.93;;;5.30;;
12332;SDS011;6232;48.094;11.288;2023-05-24T05:57:12;6.83;;;5.10;;
12332;SDS011;6232;48.094;11.288;2023-05-24T05:59:59;7.83;;;5.33;;
12332;SDS011;6232;48.094;11.288;2023-05-24T06:02:45;7.60;;;5.10;;
12332;SDS011;6232;48.094;11.288;2023-05-24T06:05:30;6.27;;;5.33;;
12332;SDS011;6232;48.094;11.288;2023-05-24T06:08:16;6.50;;;4.83;;
12332;SDS011;6232;48.094;11.288;2023-05-24T06:11:01;7.43;;;5.67;;
12332;SDS011;6232;48.094;11.288;2023-05-24T06:13:47;8.80;;;5.77;;
12332;SDS011;6232;48.094;11.288;2023-05-24T06:16:33;9.13;;;4.90;;
12332;SDS011;6232;48.094;11.288;2023-05-24T06:19:18;5.73;;;5.23;;
12332;SDS011;6232;48.094;11.288;2023-05-24T06:22:05;5.30;;;4.80;;
12332;SDS011;6232;48.094;11.288;2023-05-24T06:24:50;7.00;;;4.77;;
12332;SDS011;6232;48.094;11.288;2023-05-24T06:27:36;5.40;;;4.90;;
12332;SDS011;6232;48.094;11.288;2023-05-24T06:30:22;6.90;;;4.83;;
12332;SDS011;6232;48.094;11.288;2023-05-24T06:33:07;5.23;;;4.70;;
12332;SDS011;6232;48.094;11.288;2023-05-24T06:35:53;6.67;;;5.13;;
12332;SDS011;6232;48.094;11.288;2023-05-24T06:38:38;6.40;;;4.90;;
12332;SDS011;6232;48.094;11.288;2023-05-24T06:41:24;5.87;;;5.13;;
12332;SDS011;6232;48.094;11.288;2023-05-24T06:44:11;5.63;;;5.00;;
12332;SDS011;6232;48.094;11.288;2023-05-24T06:46:56;6.60;;;5.20;;
12332;SDS011;6232;48.094;11.288;2023-05-24T06:49:42;7.40;;;5.50;;
12332;SDS011;6232;48.094;11.288;2023-05-24T06:52:27;5.13;;;4.63;;
12332;SDS011;6232;48.094;11.288;2023-05-24T06:55:13;6.07;;;4.60;;
12332;SDS011;6232;48.094;11.288;2023-05-24T06:57:59;13.80;;;7.27;;
12332;SDS011;6232;48.094;11.288;2023-05-24T07:00:44;5.73;;;4.90;;
12332;SDS011;6232;48.094;11.288;2023-05-24T07:03:30;8.03;;;4.50;;
12332;SDS011;6232;48.094;11.288;2023-05-24T07:06:16;6.03;;;4.50;;
12332;SDS011;6232;48.094;11.288;2023-05-24T07:09:03;5.17;;;4.67;;
12332;SDS011;6232;48.094;11.288;2023-05-24T07:11:48;5.10;;;4.60;;
12332;SDS011;6232;48.094;11.288;2023-05-24T07:14:34;4.90;;;4.37;;
12332;SDS011;6232;48.094;11.288;2023-05-24T07:17:20;8.97;;;5.20;;
12332;SDS011;6232;48.094;11.288;2023-05-24T07:20:05;5.37;;;4.00;;
12332;SDS011;6232;48.094;11.288;2023-05-24T07:22:54;7.30;;;4.90;;
12332;SDS011;6232;48.094;11.288;2023-05-24T07:25:40;4.90;;;4.00;;
12332;SDS011;6232;48.094;11.288;2023-05-24T07:28:25;8.10;;;4.50;;
12332;SDS011;6232;48.094;11.288;2023-05-24T07:31:11;12.77;;;5.63;;
12332;SDS011;6232;48.094;11.288;2023-05-24T07:33:57;9.10;;;5.50;;
12332;SDS011;6232;48.094;11.288;2023-05-24T07:36:43;11.97;;;5.53;;
12332;SDS011;6232;48.094;11.288;2023-05-24T07:39:29;9.33;;;5.70;;
12332;SDS011;6232;48.094;11.288;2023-05-24T07:42:15;10.70;;;5.83;;
12332;SDS011;6232;48.094;11.288;2023-05-24T07:45:01;7.33;;;5.60;;
12332;SDS011;6232;48.094;11.288;2023-05-24T07:47:47;4.93;;;4.50;;
12332;SDS011;6232;48.094;11.288;2023-05-24T07:50:32;6.10;;;5.50;;
12332;SDS011;6232;48.094;11.288;2023-05-24T07:53:18;9.10;;;5.20;;
12332;SDS011;6232;48.094;11.288;2023-05-24T07:56:04;5.77;;;4.80;;
12332;SDS011;6232;48.094;11.288;2023-05-24T07:58:50;11.37;;;5.33;;
12332;SDS011;6232;48.094;11.288;2023-05-24T08:01:36;7.37;;;5.57;;
12332;SDS011;6232;48.094;11.288;2023-05-24T08:04:22;9.73;;;4.80;;
12332;SDS011;6232;48.094;11.288;2023-05-24T08:07:08;8.60;;;5.40;;
12332;SDS011;6232;48.094;11.288;2023-05-24T08:09:53;7.77;;;5.20;;
12332;SDS011;6232;48.094;11.288;2023-05-24T08:12:39;5.27;;;4.77;;
12332;SDS011;6232;48.094;11.288;2023-05-24T08:15:25;6.67;;;5.10;;
12332;SDS011;6232;48.094;11.288;2023-05-24T08:18:10;7.67;;;5.90;;
12332;SDS011;6232;48.094;11.288;2023-05-24T08:20:56;8.67;;;5.87;;
12332;SDS011;6232;48.094;11.288;2023-05-24T08:23:45;7.93;;;5.70;;
12332;SDS011;6232;48.094;11.288;2023-05-24T08:26:30;5.80;;;5.30;;
12332;SDS011;6232;48.094;11.288;2023-05-24T08:29:16;8.57;;;6.40;;
12332;SDS011;6232;48.094;11.288;2023-05-24T08:32:01;9.33;;;5.80;;
12332;SDS011;6232;48.094;11.288;2023-05-24T08:34:48;7.60;;;6.80;;
12332;SDS011;6232;48.094;11.288;2023-05-24T08:37:34;10.30;;;7.00;;
12332;SDS011;6232;48.094;11.288;2023-05-24T08:40:20;15.20;;;7.20;;
12332;SDS011;6232;48.094;11.288;2023-05-24T08:43:08;10.07;;;7.40;;
12332;SDS011;6232;48.094;11.288;2023-05-24T08:45:56;13.53;;;7.27;;
12332;SDS011;6232;48.094;11.288;2023-05-24T08:48:44;8.80;;;7.33;;
12332;SDS011;6232;48.094;11.288;2023-05-24T08:51:31;12.10;;;8.13;;
12332;SDS011;6232;48.094;11.288;2023-05-24T08:54:17;9.87;;;8.43;;
12332;SDS011;6232;48.094;11.288;2023-05-24T08:57:03;7.60;;;6.80;;
12332;SDS011;6232;48.094;11.288;2023-05-24T08:59:50;7.40;;;6.70;;
12332;SDS011;6232;48.094;11.288;2023-05-24T09:02:40;8.00;;;6.80;;
12332;SDS011;6232;48.094;11.288;2023-05-24T09:05:26;11.93;;;6.27;;
12332;SDS011;6232;48.094;11.288;2023-05-24T09:08:13;11.50;;;6.93;;
12332;SDS011;6232;48.094;11.288;2023-05-24T09:11:02;14.57;;;8.23;;
12332;SDS011;6232;48.094;11.288;2023-05-24T09:13:49;9.87;;;6.70;;
12332;SDS011;6232;48.094;11.288;2023-05-24T09:16:35;9.00;;;5.67;;
12332;SDS011;6232;48.094;11.288;2023-05-24T09:19:21;7.20;;;5.80;;
12332;SDS011;6232;48.094;11.288;2023-05-24T09:22:07;14.40;;;6.53;;
12332;SDS011;6232;48.094;11.288;2023-05-24T09:24:56;11.07;;;6.70;;
12332;SDS011;6232;48.094;11.288;2023-05-24T09:27:42;10.83;;;6.60;;
12332;SDS011;6232;48.094;11.288;2023-05-24T09:30:28;9.00;;;6.60;;
12332;SDS011;6232;48.094;11.288;2023-05-24T09:33:14;15.63;;;6.53;;
12332;SDS011;6232;48.094;11.288;2023-05-24T09:36:00;9.13;;;6.40;;
12332;SDS011;6232;48.094;11.288;2023-05-24T09:38:46;8.97;;;6.20;;
12332;SDS011;6232;48.094;11.288;2023-05-24T09:41:32;7.43;;;6.63;;
12332;SDS011;6232;48.094;11.288;2023-05-24T09:44:18;8.83;;;6.80;;
12332;SDS011;6232;48.094;11.288;2023-05-24T09:47:03;9.17;;;7.43;;
12332;SDS011;6232;48.094;11.288;2023-05-24T09:49:50;8.80;;;7.67;;
12332;SDS011;6232;48.094;11.288;2023-05-24T09:52:36;11.50;;;8.53;;
12332;SDS011;6232;48.094;11.288;2023-05-24T09:55:22;12.07;;;8.83;;
12332;SDS011;6232;48.094;11.288;2023-05-24T09:58:08;13.93;;;8.20;;
12332;SDS011;6232;48.094;11.288;2023-05-24T10:00:55;12.37;;;9.60;;
12332;SDS011;6232;48.094;11.288;2023-05-24T10:03:51;12.70;;;9.20;;
12332;SDS011;6232;48.094;11.288;2023-05-24T10:13:22;12.33;;;8.87;;
12332;SDS011;6232;48.094;11.288;2023-05-24T10:16:08;14.13;;;8.77;;
12332;SDS011;6232;48.094;11.288;2023-05-24T10:18:54;14.70;;;8.23;;
12332;SDS011;6232;48.094;11.288;2023-05-24T10:21:41;12.73;;;8.63;;
12332;SDS011;6232;48.094;11.288;2023-05-24T10:24:48;11.87;;;8.60;;
12332;SDS011;6232;48.094;11.288;2023-05-24T10:27:33;22.93;;;8.30;;
12332;SDS011;6232;48.094;11.288;2023-05-24T10:33:11;12.13;;;7.07;;
12332;SDS011;6232;48.094;11.288;2023-05-24T10:35:57;7.30;;;5.97;;
12332;SDS011;6232;48.094;11.288;2023-05-24T10:38:46;12.20;;;8.57;;
12332;SDS011;6232;48.094;11.288;2023-05-24T10:41:37;10.77;;;7.07;;
12332;SDS011;6232;48.094;11.288;2023-05-24T10:44:23;8.20;;;6.40;;
12332;SDS011;6232;48.094;11.288;2023-05-24T10:47:13;9.40;;;6.90;;
12332;SDS011;6232;48.094;11.288;2023-05-24T10:50:00;8.40;;;6.17;;
12332;SDS011;6232;48.094;11.288;2023-05-24T10:53:14;10.17;;;6.43;;
12332;SDS011;6232;48.094;11.288;2023-05-24T10:56:00;14.20;;;6.60;;
12332;SDS011;6232;48.094;11.288;2023-05-24T11:01:40;10.80;;;5.70;;
12332;SDS011;6232;48.094;11.288;2023-05-24T11:04:30;11.23;;;6.17;;
12332;SDS011;6232;48.094;11.288;2023-05-24T11:07:17;9.07;;;6.63;;
12332;SDS011;6232;48.094;11.288;2023-05-24T11:10:03;9.40;;;7.23;;
12332;SDS011;6232;48.094;11.288;2023-05-24T11:12:58;14.13;;;6.93;;
12332;SDS011;6232;48.094;11.288;2023-05-24T11:15:50;10.13;;;6.63;;
12332;SDS011;6232;48.094;11.288;2023-05-24T11:18:36;10.50;;;7.17;;
12332;SDS011;6232;48.094;11.288;2023-05-24T11:21:24;11.20;;;6.77;;
12332;SDS011;6232;48.094;11.288;2023-05-24T11:24:11;10.53;;;8.07;;
12332;SDS011;6232;48.094;11.288;2023-05-24T11:26:57;17.50;;;8.20;;
12332;SDS011;6232;48.094;11.288;2023-05-24T11:29:44;17.13;;;7.70;;
12332;SDS011;6232;48.094;11.288;2023-05-24T11:32:30;18.03;;;8.23;;
12332;SDS011;6232;48.094;11.288;2023-05-24T11:35:19;9.73;;;7.23;;
12332;SDS011;6232;48.094;11.288;2023-05-24T11:38:13;10.83;;;7.50;;
12332;SDS011;6232;48.094;11.288;2023-05-24T11:41:00;8.70;;;6.97;;
12332;SDS011;6232;48.094;11.288;2023-05-24T11:43:46;13.10;;;8.07;;
12332;SDS011;6232;48.094;11.288;2023-05-24T11:46:32;19.60;;;6.53;;
12332;SDS011;6232;48.094;11.288;2023-05-24T11:49:17;12.43;;;7.17;;
12332;SDS011;6232;48.094;11.288;2023-05-24T11:52:03;7.53;;;6.37;;
12332;SDS011;6232;48.094;11.288;2023-05-24T11:54:49;9.70;;;7.10;;
12332;SDS011;6232;48.094;11.288;2023-05-24T11:57:36;9.70;;;6.83;;
12332;SDS011;6232;48.094;11.288;2023-05-24T12:00:25;10.97;;;7.60;;
12332;SDS011;6232;48.094;11.288;2023-05-24T12:03:10;24.30;;;8.17;;
12332;SDS011;6232;48.094;11.288;2023-05-24T12:05:56;18.20;;;6.70;;
12332;SDS011;6232;48.094;11.288;2023-05-24T12:08:42;16.43;;;6.70;;
12332;SDS011;6232;48.094;11.288;2023-05-24T12:11:27;12.77;;;6.60;;
12332;SDS011;6232;48.094;11.288;2023-05-24T12:14:13;13.50;;;7.40;;
12332;SDS011;6232;48.094;11.288;2023-05-24T12:17:00;12.73;;;7.23;;
12332;SDS011;6232;48.094;11.288;2023-05-24T12:19:47;14.90;;;7.10;;
12332;SDS011;6232;48.094;11.288;2023-05-24T12:22:33;10.23;;;6.47;;
12332;SDS011;6232;48.094;11.288;2023-05-24T12:25:19;11.47;;;6.80;;
12332;SDS011;6232;48.094;11.288;2023-05-24T12:28:05;11.87;;;7.00;;
12332;SDS011;6232;48.094;11.288;2023-05-24T12:30:51;16.27;;;7.00;;
12332;SDS011;6232;48.094;11.288;2023-05-24T12:33:37;11.67;;;7.30;;
12332;SDS011;6232;48.094;11.288;2023-05-24T12:36:23;14.07;;;7.53;;
12332;SDS011;6232;48.094;11.288;2023-05-24T12:39:16;21.40;;;6.90;;
12332;SDS011;6232;48.094;11.288;2023-05-24T12:42:02;17.20;;;7.10;;
12332;SDS011;6232;48.094;11.288;2023-05-24T12:44:48;16.20;;;7.10;;
12332;SDS011;6232;48.094;11.288;2023-05-24T12:47:36;10.33;;;6.80;;
12332;SDS011;6232;48.094;11.288;2023-05-24T12:50:23;11.07;;;6.77;;
12332;SDS011;6232;48.094;11.288;2023-05-24T12:53:09;14.73;;;6.90;;
12332;SDS011;6232;48.094;11.288;2023-05-24T12:55:55;11.57;;;7.30;;
12332;SDS011;6232;48.094;11.288;2023-05-24T12:58:41;11.67;;;6.70;;
12332;SDS011;6232;48.094;11.288;2023-05-24T13:01:27;11.63;;;6.60;;
12332;SDS011;6232;48.094;11.288;2023-05-24T13:04:12;14.20;;;6.43;;
12332;SDS011;6232;48.094;11.288;2023-05-24T13:06:58;11.80;;;6.63;;
12332;SDS011;6232;48.094;11.288;2023-05-24T13:09:44;19.33;;;6.23;;
12332;SDS011;6232;48.094;11.288;2023-05-24T13:12:30;8.00;;;6.17;;
12332;SDS011;6232;48.094;11.288;2023-05-24T13:15:15;11.27;;;6.57;;
12332;SDS011;6232;48.094;11.288;2023-05-24T13:18:02;9.73;;;6.53;;
12332;SDS011;6232;48.094;11.288;2023-05-24T13:20:48;10.70;;;5.73;;
12332;SDS011;6232;48.094;11.288;2023-05-24T13:23:35;9.27;;;5.83;;
12332;SDS011;6232;48.094;11.288;2023-05-24T13:26:21;15.17;;;6.70;;
12332;SDS011;6232;48.094;11.288;2023-05-24T13:29:08;14.10;;;6.40;;
12332;SDS011;6232;48.094;11.288;2023-05-24T13:31:54;7.97;;;5.07;;
12332;SDS011;6232;48.094;11.288;2023-05-24T13:34:40;9.30;;;6.47;;
12332;SDS011;6232;48.094;11.288;2023-05-24T13:37:26;11.33;;;5.13;;
12332;SDS011;6232;48.094;11.288;2023-05-24T13:40:12;20.17;;;5.33;;
12332;SDS011;6232;48.094;11.288;2023-05-24T13:42:57;10.20;;;4.70;;
12332;SDS011;6232;48.094;11.288;2023-05-24T13:45:43;12.70;;;5.63;;
12332;SDS011;6232;48.094;11.288;2023-05-24T13:48:29;10.27;;;5.97;;
12332;SDS011;6232;48.094;11.288;2023-05-24T13:51:15;9.93;;;5.33;;
12332;SDS011;6232;48.094;11.288;2023-05-24T13:54:03;11.20;;;5.60;;
12332;SDS011;6232;48.094;11.288;2023-05-24T13:56:51;7.57;;;5.90;;
12332;SDS011;6232;48.094;11.288;2023-05-24T13:59:36;10.90;;;4.83;;
12332;SDS011;6232;48.094;11.288;2023-05-24T14:02:22;12.40;;;5.47;;
12332;SDS011;6232;48.094;11.288;2023-05-24T14:05:08;5.67;;;4.50;;
12332;SDS011;6232;48.094;11.288;2023-05-24T14:07:54;9.37;;;4.40;;
12332;SDS011;6232;48.094;11.288;2023-05-24T14:10:40;13.30;;;5.20;;
12332;SDS011;6232;48.094;11.288;2023-05-24T14:13:25;7.90;;;5.40;;
12332;SDS011;6232;48.094;11.288;2023-05-24T14:16:11;8.67;;;4.60;;
12332;SDS011;6232;48.094;11.288;2023-05-24T14:18:57;10.60;;;4.90;;
12332;SDS011;6232;48.094;11.288;2023-05-24T14:21:42;6.20;;;4.57;;
12332;SDS011;6232;48.094;11.288;2023-05-24T14:24:28;15.00;;;5.20;;
12332;SDS011;6232;48.094;11.288;2023-05-24T14:27:13;8.07;;;4.20;;
12332;SDS011;6232;48.094;11.288;2023-05-24T14:29:59;10.43;;;5.10;;
12332;SDS011;6232;48.094;11.288;2023-05-24T14:32:44;11.63;;;5.93;;
12332;SDS011;6232;48.094;11.288;2023-05-24T14:35:30;9.30;;;4.93;;
12332;SDS011;6232;48.094;11.288;2023-05-24T14:38:22;11.90;;;4.83;;
12332;SDS011;6232;48.094;11.288;2023-05-24T14:41:08;9.70;;;4.70;;
12332;SDS011;6232;48.094;11.288;2023-05-24T14:43:54;10.90;;;5.37;;
12332;SDS011;6232;48.094;11.288;2023-05-24T14:46:39;10.23;;;4.80;;
12332;SDS011;6232;48.094;11.288;2023-05-24T14:49:25;14.47;;;4.90;;
12332;SDS011;6232;48.094;11.288;2023-05-24T14:52:11;12.20;;;5.07;;
12332;SDS011;6232;48.094;11.288;2023-05-24T14:54:56;10.37;;;5.13;;
12332;SDS011;6232;48.094;11.288;2023-05-24T14:57:42;9.97;;;5.73;;
12332;SDS011;6232;48.094;11.288;2023-05-24T15:00:27;7.83;;;4.53;;
12332;SDS011;6232;48.094;11.288;2023-05-24T15:03:13;6.40;;;5.07;;
12332;SDS011;6232;48.094;11.288;2023-05-24T15:05:59;10.23;;;4.80;;
12332;SDS011;6232;48.094;11.288;2023-05-24T15:08:45;9.97;;;4.67;;
12332;SDS011;6232;48.094;11.288;2023-05-24T15:11:30;8.33;;;4.50;;
12332;SDS011;6232;48.094;11.288;2023-05-24T15:14:16;7.20;;;4.40;;
12332;SDS011;6232;48.094;11.288;2023-05-24T15:17:01;9.47;;;4.90;;
12332;SDS011;6232;48.094;11.288;2023-05-24T15:19:47;8.80;;;4.50;;
12332;SDS011;6232;48.094;11.288;2023-05-24T15:22:33;9.30;;;5.33;;
12332;SDS011;6232;48.094;11.288;2023-05-24T15:25:18;9.03;;;4.80;;
12332;SDS011;6232;48.094;11.288;2023-05-24T15:28:05;8.30;;;4.70;;
12332;SDS011;6232;48.094;11.288;2023-05-24T15:30:50;5.90;;;3.80;;
12332;SDS011;6232;48.094;11.288;2023-05-24T15:33:36;7.87;;;4.73;;
12332;SDS011;6232;48.094;11.288;2023-05-24T15:36:22;8.10;;;4.07;;
12332;SDS011;6232;48.094;11.288;2023-05-24T15:39:07;10.57;;;5.03;;
12332;SDS011;6232;48.094;11.288;2023-05-24T15:41:53;10.80;;;5.20;;
12332;SDS011;6232;48.094;11.288;2023-05-24T15:44:39;9.47;;;5.20;;
12332;SDS011;6232;48.094;11.288;2023-05-24T15:47:24;8.60;;;4.60;;
12332;SDS011;6232;48.094;11.288;2023-05-24T15:50:14;6.63;;;4.93;;
12332;SDS011;6232;48.094;11.288;2023-05-24T15:53:00;9.23;;;4.40;;
12332;SDS011;6232;48.094;11.288;2023-05-24T15:55:46;10.37;;;4.97;;
12332;SDS011;6232;48.094;11.288;2023-05-24T15:58:32;10.00;;;4.70;;
12332;SDS011;6232;48.094;11.288;2023-05-24T16:01:17;9.30;;;4.80;;
12332;SDS011;6232;48.094;11.288;2023-05-24T16:04:03;9.23;;;4.83;;
12332;SDS011;6232;48.094;11.288;2023-05-24T16:06:48;10.40;;;5.00;;
12332;SDS011;6232;48.094;11.288;2023-05-24T16:09:34;10.33;;;4.43;;
12332;SDS011;6232;48.094;11.288;2023-05-24T16:12:20;7.13;;;4.57;;
12332;SDS011;6232;48.094;11.288;2023-05-24T16:15:06;9.67;;;4.80;;
12332;SDS011;6232;48.094;11.288;2023-05-24T16:17:52;10.50;;;5.40;;
12332;SDS011;6232;48.094;11.288;2023-05-24T16:20:37;9.00;;;4.73;;
12332;SDS011;6232;48.094;11.288;2023-05-24T16:23:23;12.63;;;4.27;;
12332;SDS011;6232;48.094;11.288;2023-05-24T16:26:08;7.63;;;4.87;;
12332;SDS011;6232;48.094;11.288;2023-05-24T16:28:54;6.77;;;4.47;;
12332;SDS011;6232;48.094;11.288;2023-05-24T16:31:39;9.90;;;4.80;;
12332;SDS011;6232;48.094;11.288;2023-05-24T16:34:25;7.23;;;5.60;;
12332;SDS011;6232;48.094;11.288;2023-05-24T16:37:11;9.93;;;4.53;;
12332;SDS011;6232;48.094;11.288;2023-05-24T16:39:57;12.10;;;5.80;;
12332;SDS011;6232;48.094;11.288;2023-05-24T16:42:42;7.40;;;4.50;;
12332;SDS011;6232;48.094;11.288;2023-05-24T16:45:28;6.97;;;5.30;;
12332;SDS011;6232;48.094;11.288;2023-05-24T16:48:14;10.77;;;4.70;;
12332;SDS011;6232;48.094;11.288;2023-05-24T16:50:59;6.40;;;5.13;;
12332;SDS011;6232;48.094;11.288;2023-05-24T16:53:45;14.87;;;5.30;;
12332;SDS011;6232;48.094;11.288;2023-05-24T16:56:31;12.93;;;6.50;;
12332;SDS011;6232;48.094;11.288;2023-05-24T16:59:16;6.23;;;5.63;;
12332;SDS011;6232;48.094;11.288;2023-05-24T17:02:02;9.73;;;5.97;;
12332;SDS011;6232;48.094;11.288;2023-05-24T17:04:47;7.57;;;5.73;;
12332;SDS011;6232;48.094;11.288;2023-05-24T17:07:33;7.53;;;4.90;;
12332;SDS011;6232;48.094;11.288;2023-05-24T17:10:19;23.70;;;7.37;;